createdAt,value
2018-11-11T00:01:44.621Z,89.28
2018-11-11T00:04:18.314Z,88.80
2018-11-11T00:06:46.810Z,88.15
2018-11-11T00:09:16.093Z,88.55
2018-11-11T00:11:50.319Z,89.02
2018-11-11T00:14:18.625Z,89.17
2018-11-11T00:16:46.867Z,89.07
2018-11-11T00:19:15.082Z,88.28
2018-11-11T00:21:43.345Z,88.62
2018-11-11T00:24:22.626Z,89.33
2018-11-11T00:26:51.852Z,88.61
2018-11-11T00:29:26.474Z,88.78
2018-11-11T00:32:11.395Z,87.75
2018-11-11T00:34:39.619Z,88.80
2018-11-11T00:37:07.805Z,88.06
2018-11-11T00:40:00.466Z,88.15
2018-11-11T00:42:28.728Z,88.53
2018-11-11T00:44:56.922Z,88.91
2018-11-11T01:07:42.142Z,88.98
2018-11-11T01:10:17.645Z,88.90
2018-11-11T01:12:46.267Z,88.29
2018-11-11T01:15:15.691Z,88.40
2018-11-11T01:17:43.913Z,88.15
2018-11-11T01:20:13.442Z,88.51
2018-11-11T01:22:42.047Z,87.95
2018-11-11T01:25:14.928Z,88.22
2018-11-11T01:27:43.253Z,87.80
2018-11-11T01:30:12.548Z,87.66
2018-11-11T01:32:42.785Z,86.87
2018-11-11T01:35:13.146Z,86.23
2018-11-11T01:37:41.943Z,85.97
2018-11-11T01:40:10.218Z,86.30
2018-11-11T01:42:38.582Z,85.63
2018-11-11T01:45:10.009Z,85.23
2018-11-11T01:47:38.221Z,85.17
2018-11-11T01:50:07.675Z,86.02
2018-11-11T01:52:35.889Z,85.29
2018-11-11T01:55:05.218Z,84.72
2018-11-11T01:57:34.431Z,84.99
2018-11-11T02:00:02.743Z,84.49
2018-11-11T02:02:31.035Z,84.16
2018-11-11T02:05:07.313Z,83.41
2018-11-11T02:07:35.529Z,84.55
2018-11-11T02:10:04.154Z,83.90
2018-11-11T02:12:32.369Z,83.69
2018-11-11T02:15:00.579Z,83.62
2018-11-11T02:17:32.845Z,82.87
2018-11-11T02:20:01.099Z,82.54
2018-11-11T02:22:29.313Z,83.12
2018-11-11T02:24:57.534Z,82.83
2018-11-11T02:27:25.759Z,83.11
2018-11-11T02:29:53.982Z,83.31
2018-11-11T02:32:22.186Z,83.83
2018-11-11T02:34:50.409Z,83.26
2018-11-11T02:37:18.626Z,83.57
2018-11-11T02:39:46.805Z,82.70
2018-11-11T02:42:15.036Z,83.03
2018-11-11T02:44:43.259Z,82.30
2018-11-11T02:47:11.465Z,82.28
2018-11-11T02:49:47.302Z,82.40
2018-11-11T02:52:15.505Z,82.70
2018-11-11T02:54:43.713Z,81.84
2018-11-11T02:57:11.926Z,81.65
2018-11-11T02:59:40.154Z,81.94
2018-11-11T03:02:08.358Z,81.29
2018-11-11T03:04:36.999Z,81.73
2018-11-11T03:07:05.342Z,81.51
2018-11-11T03:09:37.398Z,82.03
2018-11-11T03:12:05.630Z,81.57
2018-11-11T03:14:33.840Z,81.39
2018-11-11T03:17:02.072Z,80.40
2018-11-11T03:19:30.269Z,81.17
2018-11-11T03:21:58.500Z,79.99
2018-11-11T03:24:26.706Z,81.38
2018-11-11T03:26:54.939Z,81.02
2018-11-11T03:29:29.958Z,81.04
2018-11-11T03:31:58.169Z,80.78
2018-11-11T03:34:26.401Z,81.32
2018-11-11T03:36:54.641Z,80.46
2018-11-11T03:39:22.863Z,80.59
2018-11-11T03:41:51.082Z,80.44
2018-11-11T03:44:19.265Z,81.53
2018-11-11T03:46:47.509Z,80.97
2018-11-11T03:49:15.726Z,80.94
2018-11-11T03:51:43.934Z,80.19
2018-11-11T03:54:22.958Z,81.92
2018-11-11T03:56:51.185Z,81.60
2018-11-11T03:59:19.415Z,81.68
2018-11-11T04:01:47.631Z,81.72
2018-11-11T04:04:15.842Z,81.98
2018-11-11T04:06:44.037Z,82.67
2018-11-11T04:09:13.166Z,81.88
2018-11-11T04:11:41.666Z,81.48
2018-11-11T04:14:10.662Z,81.01
2018-11-11T04:16:39.135Z,81.82
2018-11-11T04:19:08.039Z,81.74
2018-11-11T04:21:36.279Z,80.87
2018-11-11T04:24:04.545Z,81.50
2018-11-11T04:26:32.769Z,81.29
2018-11-11T04:29:01.002Z,81.70
2018-11-11T04:31:29.224Z,81.87
2018-11-11T04:33:57.458Z,81.15
2018-11-11T04:36:25.662Z,81.38
2018-11-11T04:39:04.948Z,81.61
2018-11-11T04:41:33.122Z,81.36
2018-11-11T04:44:01.335Z,81.11
2018-11-11T04:46:29.543Z,81.27
2018-11-11T04:49:16.305Z,80.21
2018-11-11T04:51:44.570Z,80.10
2018-11-11T04:54:12.787Z,80.94
2018-11-11T04:56:41.035Z,81.09
2018-11-11T04:59:09.246Z,81.04
2018-11-11T05:01:37.553Z,80.94
2018-11-11T05:04:05.705Z,80.68
2018-11-11T05:06:33.922Z,80.50
2018-11-11T05:09:02.122Z,80.08
2018-11-11T05:11:30.343Z,80.52
2018-11-11T05:13:58.547Z,80.57
2018-11-11T05:16:26.766Z,79.50
2018-11-11T05:18:54.972Z,80.67
2018-11-11T05:21:23.170Z,80.56
2018-11-11T05:23:51.370Z,80.46
2018-11-11T05:26:19.590Z,80.37
2018-11-11T05:28:54.025Z,79.69
2018-11-11T05:31:22.234Z,79.69
2018-11-11T05:33:50.446Z,79.83
2018-11-11T05:36:18.671Z,80.34
2018-11-11T05:38:46.902Z,80.12
2018-11-11T05:41:15.101Z,80.77
2018-11-11T05:43:43.298Z,81.43
2018-11-11T05:46:11.508Z,81.58
2018-11-11T05:48:39.697Z,80.84
2018-11-11T05:51:07.881Z,80.42
2018-11-11T05:53:36.084Z,80.54
2018-11-11T05:56:04.317Z,81.38
2018-11-11T05:58:32.525Z,80.28
2018-11-11T06:01:00.782Z,80.20
2018-11-11T06:03:28.994Z,80.43
2018-11-11T06:05:57.202Z,80.40
2018-11-11T06:08:25.410Z,80.74
2018-11-11T06:10:53.594Z,80.98
2018-11-11T06:13:21.813Z,81.42
2018-11-11T06:15:50.001Z,80.47
2018-11-11T06:18:18.206Z,80.81
2018-11-11T06:20:46.445Z,80.22
2018-11-11T06:23:15.746Z,79.68
2018-11-11T06:25:45.333Z,79.85
2018-11-11T06:28:14.537Z,80.12
2018-11-11T06:30:42.758Z,80.15
2018-11-11T06:33:10.955Z,79.29
2018-11-11T06:35:39.134Z,79.44
2018-11-11T06:38:07.358Z,78.46
2018-11-11T06:40:35.543Z,78.71
2018-11-11T06:43:03.830Z,78.98
2018-11-11T06:45:32.023Z,78.85
2018-11-11T06:48:00.238Z,78.35
2018-11-11T06:50:28.431Z,78.56
2018-11-11T06:52:57.762Z,78.66
2018-11-11T06:55:25.940Z,79.03
2018-11-11T06:57:54.187Z,78.60
2018-11-11T07:00:22.485Z,79.32
2018-11-11T07:03:01.882Z,79.11
2018-11-11T07:05:31.104Z,78.55
2018-11-11T07:07:59.309Z,78.40
2018-11-11T07:10:27.602Z,78.75
2018-11-11T07:12:55.814Z,78.04
2018-11-11T07:15:24.040Z,78.15
2018-11-11T07:17:52.276Z,77.78
2018-11-11T07:20:20.485Z,78.19
2018-11-11T07:22:48.675Z,77.60
2018-11-11T07:25:16.913Z,77.28
2018-11-11T07:27:45.158Z,78.40
2018-11-11T07:30:13.454Z,77.77
2018-11-11T07:32:41.727Z,77.62
2018-11-11T07:35:10.802Z,76.50
2018-11-11T07:37:39.129Z,75.99
2018-11-11T07:40:10.519Z,76.46
2018-11-11T07:42:38.747Z,76.31
2018-11-11T07:45:07.093Z,75.89
2018-11-11T07:47:37.288Z,75.44
2018-11-11T07:50:08.551Z,75.08
2018-11-11T07:52:37.225Z,75.18
2018-11-11T07:55:06.286Z,74.59
2018-11-11T07:57:34.377Z,74.83
2018-11-11T08:00:02.612Z,73.71
2018-11-11T08:02:30.916Z,73.36
2018-11-11T08:04:59.174Z,73.69
2018-11-11T08:07:27.657Z,74.47
2018-11-11T08:09:55.919Z,74.17
2018-11-11T08:12:24.189Z,74.28
2018-11-11T08:14:52.512Z,73.50
2018-11-11T08:17:21.801Z,74.11
2018-11-11T08:19:50.058Z,73.64
2018-11-11T08:22:18.333Z,73.55
2018-11-11T08:24:46.605Z,73.73
2018-11-11T08:27:14.982Z,72.74
2018-11-11T08:29:43.274Z,73.16
2018-11-11T08:32:11.641Z,72.55
2018-11-11T08:34:39.914Z,72.11
2018-11-11T08:37:08.204Z,71.98
2018-11-11T08:39:36.480Z,72.60
2018-11-11T08:42:04.940Z,72.21
2018-11-11T08:44:33.224Z,72.68
2018-11-11T08:47:01.519Z,74.03
2018-11-11T08:49:30.806Z,72.08
2018-11-11T08:51:59.087Z,82.29
2018-11-11T08:54:32.665Z,70.76
2018-11-11T08:57:00.977Z,69.36
2018-11-11T08:59:29.277Z,69.74
2018-11-11T09:01:57.529Z,70.02
2018-11-11T09:04:25.815Z,70.40
2018-11-11T09:06:54.048Z,71.02
2018-11-11T09:09:22.269Z,70.39
2018-11-11T09:11:50.478Z,71.00
2018-11-11T09:14:18.686Z,70.35
2018-11-11T09:16:46.948Z,71.07
2018-11-11T09:19:15.333Z,71.02
2018-11-11T09:21:43.619Z,69.94
2018-11-11T09:24:11.895Z,70.96
2018-11-11T09:26:40.122Z,70.27
2018-11-11T09:29:08.430Z,69.87
2018-11-11T09:31:36.621Z,69.33
2018-11-11T09:34:04.918Z,68.61
2018-11-11T09:36:33.102Z,68.81
2018-11-11T09:39:01.348Z,67.70
2018-11-11T09:41:29.546Z,68.19
2018-11-11T09:43:57.787Z,67.88
2018-11-11T09:46:26.004Z,68.15
2018-11-11T09:48:54.213Z,68.25
2018-11-11T09:51:38.793Z,68.25
2018-11-11T09:54:07.505Z,68.76
2018-11-11T09:56:35.813Z,68.10
2018-11-11T09:59:04.163Z,68.75
2018-11-11T10:01:32.435Z,67.28
2018-11-11T10:04:06.808Z,67.59
2018-11-11T10:06:42.190Z,68.25
2018-11-11T10:11:20.033Z,67.80
2018-11-11T10:14:07.574Z,68.22
2018-11-11T10:16:45.335Z,68.55
2018-11-11T10:19:22.377Z,69.22
2018-11-11T10:23:58.200Z,69.44
2018-11-11T10:26:31.251Z,69.09
2018-11-11T10:29:08.964Z,68.75
2018-11-11T10:31:49.189Z,69.14
2018-11-11T10:34:32.224Z,68.47
2018-11-11T10:37:05.512Z,69.19
2018-11-11T10:39:43.718Z,68.51
2018-11-11T10:42:56.709Z,68.78
2018-11-11T10:45:30.629Z,68.98
2018-11-11T10:48:09.485Z,68.50
2018-11-11T10:50:40.969Z,69.27
2018-11-11T10:53:09.309Z,68.92
2018-11-11T10:55:37.530Z,68.18
2018-11-11T10:58:06.858Z,68.20
2018-11-11T11:00:40.629Z,67.80
2018-11-11T11:03:14.234Z,68.37
2018-11-11T11:05:42.494Z,67.72
2018-11-11T11:08:10.803Z,67.76
2018-11-11T11:10:39.086Z,67.50
2018-11-11T11:13:07.443Z,67.10
2018-11-11T11:15:35.686Z,67.84
2018-11-11T11:18:03.938Z,67.27
2018-11-11T11:20:32.250Z,67.34
2018-11-11T11:23:00.560Z,67.63
2018-11-11T11:25:28.821Z,67.13
2018-11-11T11:27:57.042Z,67.07
2018-11-11T11:30:25.357Z,66.52
2018-11-11T11:32:53.622Z,67.17
2018-11-11T11:35:22.951Z,67.08
2018-11-11T11:37:51.161Z,67.12
2018-11-11T11:40:19.372Z,66.29
2018-11-11T11:42:48.694Z,65.45
2018-11-11T11:45:16.895Z,65.33
2018-11-11T11:47:45.137Z,65.81
2018-11-11T11:50:13.884Z,66.12
2018-11-11T11:52:42.695Z,64.78
2018-11-11T11:55:12.674Z,65.74
2018-11-11T11:57:41.156Z,64.18
2018-11-11T12:00:12.202Z,64.25
2018-11-11T12:02:40.914Z,63.72
2018-11-11T12:05:10.597Z,63.87
2018-11-11T12:07:38.978Z,63.07
2018-11-11T12:10:09.547Z,64.37
2018-11-11T12:12:37.976Z,63.49
2018-11-11T12:15:07.517Z,62.55
2018-11-11T12:17:35.867Z,62.85
2018-11-11T12:20:04.479Z,63.18
2018-11-11T12:22:32.806Z,63.72
2018-11-11T12:25:01.158Z,62.64
2018-11-11T12:27:29.597Z,62.84
2018-11-11T12:29:58.882Z,63.37
2018-11-11T12:32:27.284Z,63.32
2018-11-11T12:34:55.737Z,63.55
2018-11-11T12:37:23.990Z,63.12
2018-11-11T12:39:52.345Z,63.30
2018-11-11T12:42:20.530Z,64.07
2018-11-11T12:44:48.943Z,63.59
2018-11-11T12:47:17.105Z,63.91
2018-11-11T12:49:45.369Z,63.58
2018-11-11T12:52:13.646Z,63.11
2018-11-11T12:54:41.998Z,63.70
2018-11-11T12:57:10.161Z,63.78
2018-11-11T12:59:38.430Z,64.00
2018-11-11T13:02:06.709Z,64.34
2018-11-11T13:04:34.987Z,64.26
2018-11-11T13:07:03.398Z,64.30
2018-11-11T13:09:31.677Z,64.01
2018-11-11T13:12:00.018Z,64.71
2018-11-11T13:14:28.792Z,64.36
2018-11-11T13:16:57.030Z,64.96
2018-11-11T13:19:25.383Z,64.20
2018-11-11T13:21:53.790Z,64.55
2018-11-11T13:24:22.078Z,64.86
2018-11-11T13:26:50.363Z,65.23
2018-11-11T13:29:18.702Z,65.55
2018-11-11T13:31:48.092Z,64.90
2018-11-11T13:34:16.311Z,64.82
2018-11-11T13:36:44.550Z,66.40
2018-11-11T13:39:13.914Z,67.09
2018-11-11T13:41:43.137Z,68.00
2018-11-11T13:44:11.561Z,68.14
2018-11-11T13:46:40.074Z,68.95
2018-11-11T13:49:08.182Z,68.57
2018-11-11T13:51:37.444Z,69.06
2018-11-11T13:54:06.346Z,68.75
2018-11-11T13:56:34.576Z,69.35
2018-11-11T13:59:02.850Z,69.24
2018-11-11T14:01:31.205Z,70.42
2018-11-11T14:03:59.370Z,68.73
2018-11-11T14:06:27.617Z,69.23
2018-11-11T14:08:55.860Z,69.31
2018-11-11T14:11:24.130Z,68.97
2018-11-11T14:13:52.371Z,69.59
2018-11-11T14:16:20.616Z,69.39
2018-11-11T14:18:48.957Z,69.67
2018-11-11T14:21:17.033Z,69.94
2018-11-11T14:23:45.300Z,69.28
2018-11-11T14:26:13.606Z,69.01
2018-11-11T14:28:41.789Z,69.42
2018-11-11T14:31:10.045Z,69.96
2018-11-11T14:33:38.284Z,69.48
2018-11-11T14:36:06.944Z,68.71
2018-11-11T14:38:35.268Z,69.82
2018-11-11T14:41:03.511Z,69.81
2018-11-11T14:43:31.783Z,69.90
2018-11-11T14:46:00.159Z,69.42
2018-11-11T14:48:29.372Z,69.92
2018-11-11T14:50:57.656Z,69.29
2018-11-11T14:53:25.914Z,70.01
2018-11-11T14:55:54.225Z,69.10
2018-11-11T14:58:22.540Z,69.28
2018-11-11T15:00:50.784Z,70.26
2018-11-11T15:03:19.717Z,69.56
2018-11-11T15:05:49.403Z,69.47
2018-11-11T15:08:17.750Z,69.58
2018-11-11T15:10:47.073Z,69.87
2018-11-11T15:13:16.246Z,69.75
2018-11-11T15:15:44.410Z,69.62
2018-11-11T15:18:12.670Z,69.59
2018-11-11T15:20:41.070Z,69.60
2018-11-11T15:23:09.817Z,69.88
2018-11-11T15:25:38.030Z,69.69
2018-11-11T15:28:06.866Z,70.02
2018-11-11T15:30:36.271Z,69.32
2018-11-11T15:33:05.163Z,70.35
2018-11-11T15:35:33.401Z,70.02
2018-11-11T15:38:01.658Z,70.44
2018-11-11T15:40:31.433Z,70.21
2018-11-11T15:42:59.914Z,70.26
2018-11-11T15:45:30.196Z,70.41
2018-11-11T15:47:58.715Z,71.43
2018-11-11T15:50:33.817Z,70.93
2018-11-11T15:53:03.413Z,71.66
2018-11-11T15:55:32.831Z,70.57
2018-11-11T15:58:01.197Z,72.05
2018-11-11T16:00:30.846Z,73.72
2018-11-11T16:02:59.104Z,74.60
2018-11-11T16:05:27.374Z,75.38
2018-11-11T16:07:56.385Z,77.02
2018-11-11T16:10:25.958Z,78.97
2018-11-11T16:12:56.295Z,80.02
2018-11-11T16:15:28.561Z,81.49
2018-11-11T16:18:00.238Z,81.45
2018-11-11T16:20:29.399Z,82.71
2018-11-11T16:22:58.533Z,82.32
2018-11-11T16:25:26.813Z,83.15
2018-11-11T16:27:55.158Z,83.11
2018-11-11T16:30:24.661Z,83.88
2018-11-11T16:32:53.418Z,84.95
2018-11-11T16:35:22.956Z,87.35
2018-11-11T16:37:51.319Z,89.28
2018-11-11T16:40:22.791Z,90.38
2018-11-11T16:42:51.474Z,90.22
2018-11-11T16:45:20.990Z,91.85
2018-11-11T16:47:49.300Z,94.14
2018-11-11T16:50:19.775Z,93.04
2018-11-11T16:52:48.812Z,93.35
2018-11-11T16:55:18.225Z,90.98
2018-11-11T16:57:46.514Z,89.96
2018-11-11T17:00:26.505Z,88.33
2018-11-11T17:02:55.415Z,87.86
2018-11-11T17:05:29.611Z,87.62
2018-11-11T17:07:57.980Z,87.87
2018-11-11T17:10:28.445Z,88.07
2018-11-11T17:12:57.934Z,87.94
2018-11-11T17:15:27.626Z,87.75
2018-11-11T17:17:55.857Z,87.52
2018-11-11T17:20:24.946Z,87.42
2018-11-11T17:22:54.308Z,87.63
2018-11-11T17:25:23.444Z,87.48
2018-11-11T17:27:51.772Z,88.70
2018-11-11T17:30:21.282Z,88.22
2018-11-11T17:32:50.347Z,88.72
2018-11-11T17:35:18.517Z,88.95
2018-11-11T17:37:47.964Z,90.29
2018-11-11T17:40:23.394Z,90.18
2018-11-11T17:42:52.514Z,88.24
2018-11-11T17:45:23.898Z,89.04
2018-11-11T17:47:53.753Z,88.38
2018-11-11T17:50:30.642Z,89.45
2018-11-11T17:52:59.728Z,90.13
2018-11-11T17:55:28.608Z,90.11
2018-11-11T17:57:56.785Z,89.63
2018-11-11T18:00:27.087Z,90.71
2018-11-11T18:02:55.929Z,90.40
2018-11-11T18:05:26.275Z,89.21
2018-11-11T18:07:55.629Z,90.06
2018-11-11T18:10:24.707Z,91.25
2018-11-11T18:12:53.034Z,88.14
2018-11-11T18:15:26.272Z,89.52
2018-11-11T18:17:54.563Z,89.42
2018-11-11T18:20:25.201Z,88.58
2018-11-11T18:22:54.450Z,89.19
2018-11-11T18:25:22.763Z,88.77
2018-11-11T18:27:51.163Z,89.65
2018-11-11T18:30:22.664Z,89.37
2018-11-11T18:32:50.945Z,89.13
2018-11-11T18:35:19.805Z,89.28
2018-11-11T18:37:52.994Z,90.10
2018-11-11T18:40:22.935Z,89.26
2018-11-11T18:42:52.232Z,89.17
2018-11-11T18:45:23.652Z,88.30
2018-11-11T18:47:54.234Z,88.83
2018-11-11T18:50:27.978Z,89.10
2018-11-11T18:52:58.295Z,90.25
2018-11-11T18:55:26.669Z,90.48
2018-11-11T18:57:55.187Z,90.70
2018-11-11T19:00:26.624Z,90.44
2018-11-11T19:02:55.677Z,92.54
2018-11-11T19:05:29.617Z,91.27
2018-11-11T19:07:58.223Z,91.34
2018-11-11T19:10:28.970Z,92.17
2018-11-11T19:12:59.967Z,91.25
2018-11-11T19:15:28.236Z,91.56
2018-11-11T19:17:56.498Z,91.00
2018-11-11T19:20:25.726Z,92.05
2018-11-11T19:22:54.004Z,90.61
2018-11-11T19:25:26.586Z,92.11
2018-11-11T19:27:55.584Z,92.57
2018-11-11T19:30:26.271Z,93.37
2018-11-11T19:32:55.012Z,93.17
2018-11-11T19:35:24.242Z,93.40
2018-11-11T19:37:53.802Z,92.93
2018-11-11T19:40:23.428Z,92.98
2018-11-11T19:42:52.728Z,93.04
2018-11-11T19:45:24.465Z,92.06
2018-11-11T19:47:52.831Z,92.83
2018-11-11T19:50:23.468Z,92.58
2018-11-11T19:52:52.669Z,92.59
2018-11-11T19:55:22.290Z,92.12
2018-11-11T19:57:50.691Z,93.81
2018-11-11T20:00:22.219Z,92.46
2018-11-11T20:02:52.159Z,92.92
2018-11-11T20:05:20.922Z,92.13
2018-11-11T20:07:52.595Z,92.18
2018-11-11T20:10:23.808Z,92.74
2018-11-11T20:12:54.316Z,92.77
2018-11-11T20:15:23.973Z,93.03
2018-11-11T20:17:52.322Z,93.22
2018-11-11T20:20:21.964Z,93.10
2018-11-11T20:22:50.326Z,93.25
2018-11-11T20:25:19.521Z,93.38
2018-11-11T20:27:51.616Z,93.47
2018-11-11T20:30:23.072Z,92.64
2018-11-11T20:32:51.417Z,92.81
2018-11-11T20:35:21.269Z,92.23
2018-11-11T20:37:49.478Z,91.81
2018-11-11T20:40:19.110Z,92.58
2018-11-11T20:42:47.924Z,91.66
2018-11-11T20:45:17.518Z,92.11
2018-11-11T20:47:46.537Z,90.77
2018-11-11T20:50:16.504Z,91.02
2018-11-11T20:52:45.622Z,90.75
2018-11-11T20:55:14.363Z,90.49
2018-11-11T20:57:42.778Z,89.93
2018-11-11T21:00:13.690Z,90.79
2018-11-11T21:02:43.082Z,88.99
2018-11-11T21:05:26.636Z,88.32
2018-11-11T21:07:56.024Z,86.74
2018-11-11T21:10:25.409Z,88.04
2018-11-11T21:12:53.699Z,88.16
2018-11-11T21:15:23.170Z,87.15
2018-11-11T21:17:51.577Z,88.32
2018-11-11T21:20:25.545Z,88.67
2018-11-11T21:22:54.266Z,88.44
2018-11-11T21:25:22.573Z,89.78
2018-11-11T21:27:51.478Z,90.30
2018-11-11T21:30:21.820Z,90.74
2018-11-11T21:32:50.396Z,91.14
2018-11-11T21:35:18.808Z,91.95
2018-11-11T21:37:47.176Z,92.35
2018-11-11T21:40:18.104Z,91.02
2018-11-11T21:42:48.209Z,92.62
2018-11-11T21:45:18.554Z,91.70
2018-11-11T21:47:47.020Z,89.84
2018-11-11T21:50:18.588Z,89.92
2018-11-11T21:52:56.155Z,90.23
2018-11-11T21:55:24.415Z,89.35
2018-11-11T21:57:52.634Z,91.06
2018-11-11T22:00:20.942Z,90.31
2018-11-11T22:02:49.196Z,89.57
2018-11-11T22:05:17.420Z,90.12
2018-11-11T22:07:45.735Z,89.70
2018-11-11T22:10:14.807Z,89.98
2018-11-11T22:12:45.089Z,89.36
2018-11-11T22:15:13.422Z,89.27
2018-11-11T22:17:42.722Z,89.19
2018-11-11T22:20:11.401Z,89.78
2018-11-11T22:22:40.082Z,91.44
2018-11-11T22:25:08.347Z,91.49
2018-11-11T22:27:36.943Z,91.28
2018-11-11T22:30:07.764Z,92.25
2018-11-11T22:32:36.052Z,93.01
2018-11-11T22:35:06.585Z,92.51
2018-11-11T22:37:34.814Z,91.94
2018-11-11T22:40:03.025Z,92.58
2018-11-11T22:42:33.396Z,93.22
2018-11-11T22:45:01.562Z,92.11
2018-11-11T22:47:29.794Z,92.94
2018-11-11T22:49:58.050Z,92.14
2018-11-11T22:52:26.355Z,91.65
2018-11-11T22:54:54.584Z,92.56
2018-11-11T22:57:22.883Z,91.35
2018-11-11T22:59:51.073Z,93.15
2018-11-11T23:02:19.295Z,92.40
2018-11-11T23:04:47.538Z,93.09
2018-11-11T23:07:15.939Z,92.12
2018-11-11T23:09:44.182Z,92.39
2018-11-11T23:12:12.431Z,91.89
2018-11-11T23:14:40.678Z,91.77
2018-11-11T23:17:08.933Z,91.37
2018-11-11T23:19:37.165Z,92.03
2018-11-11T23:22:05.540Z,92.79
2018-11-11T23:24:33.764Z,91.60
2018-11-11T23:27:01.974Z,91.54
2018-11-11T23:29:31.074Z,91.87
2018-11-11T23:31:59.484Z,90.87
2018-11-11T23:34:27.729Z,90.37
2018-11-11T23:36:56.041Z,90.76
2018-11-11T23:39:24.202Z,91.63
2018-11-11T23:41:52.422Z,91.90
2018-11-11T23:44:20.639Z,91.53
2018-11-11T23:46:48.890Z,91.35
2018-11-11T23:49:17.122Z,92.05
2018-11-11T23:51:45.347Z,92.25
2018-11-11T23:54:23.157Z,91.67
2018-11-11T23:56:51.430Z,91.75
2018-11-11T23:59:19.700Z,92.25
